sensor_id;sensor_type;location;lat;lon;timestamp;P1;durP1;ratioP1;P2;durP2;ratioP2
69594;SDS011;56800;52.142;5.364;2023-04-03T00:02:00;3.08;;;1.30;;
69594;SDS011;56800;52.142;5.364;2023-04-03T00:04:27;4.72;;;1.20;;
69594;SDS011;56800;52.142;5.364;2023-04-03T00:06:54;4.03;;;1.58;;
69594;SDS011;56800;52.142;5.364;2023-04-03T00:09:21;4.32;;;1.98;;
69594;SDS011;56800;52.142;5.364;2023-04-03T00:11:47;3.57;;;1.30;;
69594;SDS011;56800;52.142;5.364;2023-04-03T00:14:14;3.40;;;1.20;;
69594;SDS011;56800;52.142;5.364;2023-04-03T00:16:41;3.60;;;1.25;;
69594;SDS011;56800;52.142;5.364;2023-04-03T00:19:08;4.38;;;1.52;;
69594;SDS011;56800;52.142;5.364;2023-04-03T00:21:37;2.97;;;1.30;;
69594;SDS011;56800;52.142;5.364;2023-04-03T00:24:04;2.73;;;1.20;;
69594;SDS011;56800;52.142;5.364;2023-04-03T00:26:31;4.00;;;1.38;;
69594;SDS011;56800;52.142;5.364;2023-04-03T00:28:58;3.35;;;1.55;;
69594;SDS011;56800;52.142;5.364;2023-04-03T00:31:25;2.40;;;1.20;;
69594;SDS011;56800;52.142;5.364;2023-04-03T00:33:51;3.78;;;1.30;;
69594;SDS011;56800;52.142;5.364;2023-04-03T00:36:18;8.67;;;1.90;;
69594;SDS011;56800;52.142;5.364;2023-04-03T00:38:45;3.08;;;1.30;;
69594;SDS011;56800;52.142;5.364;2023-04-03T00:41:12;2.97;;;1.42;;
69594;SDS011;56800;52.142;5.364;2023-04-03T00:43:38;3.78;;;1.10;;
69594;SDS011;56800;52.142;5.364;2023-04-03T00:46:05;5.93;;;1.40;;
69594;SDS011;56800;52.142;5.364;2023-04-03T00:48:34;3.27;;;1.33;;
69594;SDS011;56800;52.142;5.364;2023-04-03T00:51:07;2.53;;;1.20;;
69594;SDS011;56800;52.142;5.364;2023-04-03T00:53:56;4.00;;;1.60;;
69594;SDS011;56800;52.142;5.364;2023-04-03T00:56:27;5.05;;;1.48;;
69594;SDS011;56800;52.142;5.364;2023-04-03T00:58:59;3.25;;;1.17;;
69594;SDS011;56800;52.142;5.364;2023-04-03T01:01:30;4.17;;;1.00;;
69594;SDS011;56800;52.142;5.364;2023-04-03T01:04:00;5.22;;;1.10;;
69594;SDS011;56800;52.142;5.364;2023-04-03T01:06:31;2.95;;;1.17;;
69594;SDS011;56800;52.142;5.364;2023-04-03T01:09:00;4.18;;;1.30;;
69594;SDS011;56800;52.142;5.364;2023-04-03T01:11:28;3.00;;;1.30;;
69594;SDS011;56800;52.142;5.364;2023-04-03T01:13:54;3.30;;;1.10;;
69594;SDS011;56800;52.142;5.364;2023-04-03T01:16:21;4.43;;;1.30;;
69594;SDS011;56800;52.142;5.364;2023-04-03T01:18:48;3.53;;;1.42;;
69594;SDS011;56800;52.142;5.364;2023-04-03T01:26:48;3.43;;;1.40;;
69594;SDS011;56800;52.142;5.364;2023-04-03T01:29:14;4.50;;;1.63;;
69594;SDS011;56800;52.142;5.364;2023-04-03T01:34:13;5.30;;;1.10;;
69594;SDS011;56800;52.142;5.364;2023-04-03T01:36:39;4.80;;;1.40;;
69594;SDS011;56800;52.142;5.364;2023-04-03T01:39:07;3.47;;;1.13;;
69594;SDS011;56800;52.142;5.364;2023-04-03T01:41:33;5.90;;;1.45;;
69594;SDS011;56800;52.142;5.364;2023-04-03T01:44:00;4.97;;;1.60;;
69594;SDS011;56800;52.142;5.364;2023-04-03T01:46:27;3.65;;;1.40;;
69594;SDS011;56800;52.142;5.364;2023-04-03T01:48:54;6.30;;;1.48;;
69594;SDS011;56800;52.142;5.364;2023-04-03T01:51:20;3.97;;;1.50;;
69594;SDS011;56800;52.142;5.364;2023-04-03T01:53:47;6.88;;;1.67;;
69594;SDS011;56800;52.142;5.364;2023-04-03T01:56:14;4.85;;;1.67;;
69594;SDS011;56800;52.142;5.364;2023-04-03T01:58:40;3.72;;;1.20;;
69594;SDS011;56800;52.142;5.364;2023-04-03T02:01:07;4.70;;;1.65;;
69594;SDS011;56800;52.142;5.364;2023-04-03T02:03:34;4.67;;;1.40;;
69594;SDS011;56800;52.142;5.364;2023-04-03T02:06:00;3.42;;;1.40;;
69594;SDS011;56800;52.142;5.364;2023-04-03T02:08:27;4.38;;;1.63;;
69594;SDS011;56800;52.142;5.364;2023-04-03T02:10:54;4.28;;;1.60;;
69594;SDS011;56800;52.142;5.364;2023-04-03T02:13:21;5.03;;;1.40;;
69594;SDS011;56800;52.142;5.364;2023-04-03T02:15:47;4.67;;;1.50;;
69594;SDS011;56800;52.142;5.364;2023-04-03T02:18:14;3.13;;;1.27;;
69594;SDS011;56800;52.142;5.364;2023-04-03T02:20:41;6.78;;;2.00;;
69594;SDS011;56800;52.142;5.364;2023-04-03T02:23:08;4.95;;;1.42;;
69594;SDS011;56800;52.142;5.364;2023-04-03T02:25:35;3.83;;;1.60;;
69594;SDS011;56800;52.142;5.364;2023-04-03T02:28:04;5.23;;;1.93;;
69594;SDS011;56800;52.142;5.364;2023-04-03T02:30:31;6.55;;;1.67;;
69594;SDS011;56800;52.142;5.364;2023-04-03T02:32:58;4.93;;;1.58;;
69594;SDS011;56800;52.142;5.364;2023-04-03T02:35:24;3.08;;;1.25;;
69594;SDS011;56800;52.142;5.364;2023-04-03T02:37:51;2.67;;;1.17;;
69594;SDS011;56800;52.142;5.364;2023-04-03T02:40:18;3.57;;;1.30;;
69594;SDS011;56800;52.142;5.364;2023-04-03T02:42:45;4.00;;;1.60;;
69594;SDS011;56800;52.142;5.364;2023-04-03T02:45:12;6.68;;;1.95;;
69594;SDS011;56800;52.142;5.364;2023-04-03T02:47:38;5.10;;;1.58;;
69594;SDS011;56800;52.142;5.364;2023-04-03T02:50:05;7.75;;;1.67;;
69594;SDS011;56800;52.142;5.364;2023-04-03T02:52:32;10.37;;;1.50;;
69594;SDS011;56800;52.142;5.364;2023-04-03T02:54:58;4.28;;;1.60;;
69594;SDS011;56800;52.142;5.364;2023-04-03T02:57:25;3.67;;;1.52;;
69594;SDS011;56800;52.142;5.364;2023-04-03T02:59:52;3.22;;;1.17;;
69594;SDS011;56800;52.142;5.364;2023-04-03T03:02:18;5.85;;;1.40;;
69594;SDS011;56800;52.142;5.364;2023-04-03T03:04:45;4.03;;;1.53;;
69594;SDS011;56800;52.142;5.364;2023-04-03T03:07:12;5.65;;;1.70;;
69594;SDS011;56800;52.142;5.364;2023-04-03T03:09:39;10.02;;;1.70;;
69594;SDS011;56800;52.142;5.364;2023-04-03T03:12:06;3.25;;;1.35;;
69594;SDS011;56800;52.142;5.364;2023-04-03T03:14:32;4.70;;;1.33;;
69594;SDS011;56800;52.142;5.364;2023-04-03T03:16:59;5.80;;;1.40;;
69594;SDS011;56800;52.142;5.364;2023-04-03T03:19:26;4.30;;;1.33;;
69594;SDS011;56800;52.142;5.364;2023-04-03T03:21:52;5.80;;;1.55;;
69594;SDS011;56800;52.142;5.364;2023-04-03T03:24:19;5.05;;;2.05;;
69594;SDS011;56800;52.142;5.364;2023-04-03T03:26:46;4.75;;;1.40;;
69594;SDS011;56800;52.142;5.364;2023-04-03T03:29:12;4.83;;;1.43;;
69594;SDS011;56800;52.142;5.364;2023-04-03T03:31:39;4.18;;;1.42;;
69594;SDS011;56800;52.142;5.364;2023-04-03T03:34:06;6.43;;;1.67;;
69594;SDS011;56800;52.142;5.364;2023-04-03T03:36:32;4.00;;;1.60;;
69594;SDS011;56800;52.142;5.364;2023-04-03T03:38:59;4.72;;;1.70;;
69594;SDS011;56800;52.142;5.364;2023-04-03T03:41:25;7.00;;;1.80;;
69594;SDS011;56800;52.142;5.364;2023-04-03T03:43:52;6.25;;;1.83;;
69594;SDS011;56800;52.142;5.364;2023-04-03T03:46:19;4.38;;;1.70;;
69594;SDS011;56800;52.142;5.364;2023-04-03T03:48:46;8.40;;;1.65;;
69594;SDS011;56800;52.142;5.364;2023-04-03T03:51:12;7.32;;;1.88;;
69594;SDS011;56800;52.142;5.364;2023-04-03T03:53:39;7.17;;;1.50;;
69594;SDS011;56800;52.142;5.364;2023-04-03T03:56:06;7.07;;;1.73;;
69594;SDS011;56800;52.142;5.364;2023-04-03T03:58:33;6.03;;;1.83;;
69594;SDS011;56800;52.142;5.364;2023-04-03T04:01:00;6.03;;;1.70;;
69594;SDS011;56800;52.142;5.364;2023-04-03T04:03:32;5.28;;;1.65;;
69594;SDS011;56800;52.142;5.364;2023-04-03T04:05:59;6.70;;;1.90;;
69594;SDS011;56800;52.142;5.364;2023-04-03T04:08:26;5.30;;;1.70;;
69594;SDS011;56800;52.142;5.364;2023-04-03T04:10:53;6.72;;;1.88;;
69594;SDS011;56800;52.142;5.364;2023-04-03T04:13:19;7.55;;;1.83;;
69594;SDS011;56800;52.142;5.364;2023-04-03T04:15:46;5.28;;;1.70;;
69594;SDS011;56800;52.142;5.364;2023-04-03T04:18:13;4.80;;;1.70;;
69594;SDS011;56800;52.142;5.364;2023-04-03T04:20:40;4.90;;;1.55;;
69594;SDS011;56800;52.142;5.364;2023-04-03T04:23:06;6.60;;;1.98;;
69594;SDS011;56800;52.142;5.364;2023-04-03T04:25:33;3.47;;;1.63;;
69594;SDS011;56800;52.142;5.364;2023-04-03T04:28:00;6.53;;;2.20;;
69594;SDS011;56800;52.142;5.364;2023-04-03T04:30:27;5.70;;;2.00;;
69594;SDS011;56800;52.142;5.364;2023-04-03T04:32:53;5.95;;;1.75;;
69594;SDS011;56800;52.142;5.364;2023-04-03T04:35:20;5.35;;;1.70;;
69594;SDS011;56800;52.142;5.364;2023-04-03T04:37:47;6.35;;;1.70;;
69594;SDS011;56800;52.142;5.364;2023-04-03T04:40:13;7.43;;;2.00;;
69594;SDS011;56800;52.142;5.364;2023-04-03T04:42:40;7.37;;;1.73;;
69594;SDS011;56800;52.142;5.364;2023-04-03T04:45:07;5.40;;;1.60;;
69594;SDS011;56800;52.142;5.364;2023-04-03T04:47:34;7.07;;;2.10;;
69594;SDS011;56800;52.142;5.364;2023-04-03T04:50:00;9.35;;;2.00;;
69594;SDS011;56800;52.142;5.364;2023-04-03T04:52:27;4.07;;;1.50;;
69594;SDS011;56800;52.142;5.364;2023-04-03T04:54:54;10.33;;;1.90;;
69594;SDS011;56800;52.142;5.364;2023-04-03T04:57:20;4.40;;;1.75;;
69594;SDS011;56800;52.142;5.364;2023-04-03T04:59:47;5.47;;;2.03;;
69594;SDS011;56800;52.142;5.364;2023-04-03T05:02:14;5.35;;;2.03;;
69594;SDS011;56800;52.142;5.364;2023-04-03T05:04:41;7.88;;;2.10;;
69594;SDS011;56800;52.142;5.364;2023-04-03T05:07:07;4.10;;;1.47;;
69594;SDS011;56800;52.142;5.364;2023-04-03T05:09:34;5.43;;;1.58;;
69594;SDS011;56800;52.142;5.364;2023-04-03T05:12:01;5.18;;;1.65;;
69594;SDS011;56800;52.142;5.364;2023-04-03T05:14:28;4.38;;;1.90;;
69594;SDS011;56800;52.142;5.364;2023-04-03T05:16:56;3.97;;;1.70;;
69594;SDS011;56800;52.142;5.364;2023-04-03T05:19:23;5.67;;;1.70;;
69594;SDS011;56800;52.142;5.364;2023-04-03T05:21:50;6.88;;;2.05;;
69594;SDS011;56800;52.142;5.364;2023-04-03T05:24:17;8.70;;;2.35;;
69594;SDS011;56800;52.142;5.364;2023-04-03T05:26:43;5.88;;;1.70;;
69594;SDS011;56800;52.142;5.364;2023-04-03T05:29:10;8.20;;;2.00;;
69594;SDS011;56800;52.142;5.364;2023-04-03T05:31:37;6.37;;;1.77;;
69594;SDS011;56800;52.142;5.364;2023-04-03T05:34:04;8.30;;;1.98;;
69594;SDS011;56800;52.142;5.364;2023-04-03T05:36:30;6.13;;;1.52;;
69594;SDS011;56800;52.142;5.364;2023-04-03T05:38:57;6.20;;;1.92;;
69594;SDS011;56800;52.142;5.364;2023-04-03T05:41:24;4.72;;;1.85;;
69594;SDS011;56800;52.142;5.364;2023-04-03T05:43:51;5.27;;;2.00;;
69594;SDS011;56800;52.142;5.364;2023-04-03T05:46:18;6.38;;;1.88;;
69594;SDS011;56800;52.142;5.364;2023-04-03T05:48:46;7.82;;;2.10;;
69594;SDS011;56800;52.142;5.364;2023-04-03T05:51:17;6.05;;;2.03;;
69594;SDS011;56800;52.142;5.364;2023-04-03T05:53:46;5.63;;;1.90;;
69594;SDS011;56800;52.142;5.364;2023-04-03T05:56:13;8.77;;;1.63;;
69594;SDS011;56800;52.142;5.364;2023-04-03T05:58:40;5.68;;;2.13;;
69594;SDS011;56800;52.142;5.364;2023-04-03T06:01:07;6.15;;;1.80;;
69594;SDS011;56800;52.142;5.364;2023-04-03T06:03:34;4.95;;;1.65;;
69594;SDS011;56800;52.142;5.364;2023-04-03T06:06:03;6.40;;;2.10;;
69594;SDS011;56800;52.142;5.364;2023-04-03T06:08:31;10.23;;;1.80;;
69594;SDS011;56800;52.142;5.364;2023-04-03T06:10:57;5.82;;;1.60;;
69594;SDS011;56800;52.142;5.364;2023-04-03T06:13:24;6.43;;;2.00;;
69594;SDS011;56800;52.142;5.364;2023-04-03T06:15:51;7.47;;;2.10;;
69594;SDS011;56800;52.142;5.364;2023-04-03T06:18:17;6.22;;;1.73;;
69594;SDS011;56800;52.142;5.364;2023-04-03T06:20:45;6.50;;;1.60;;
69594;SDS011;56800;52.142;5.364;2023-04-03T06:23:11;8.07;;;1.95;;
69594;SDS011;56800;52.142;5.364;2023-04-03T06:25:38;5.28;;;1.77;;
69594;SDS011;56800;52.142;5.364;2023-04-03T06:28:05;8.52;;;2.03;;
69594;SDS011;56800;52.142;5.364;2023-04-03T06:30:35;8.48;;;1.88;;
69594;SDS011;56800;52.142;5.364;2023-04-03T06:33:03;10.23;;;2.73;;
69594;SDS011;56800;52.142;5.364;2023-04-03T06:35:29;6.97;;;1.75;;
69594;SDS011;56800;52.142;5.364;2023-04-03T06:37:57;7.22;;;1.95;;
69594;SDS011;56800;52.142;5.364;2023-04-03T06:40:24;6.60;;;1.83;;
69594;SDS011;56800;52.142;5.364;2023-04-03T06:42:52;6.22;;;2.00;;
69594;SDS011;56800;52.142;5.364;2023-04-03T06:45:19;4.77;;;1.50;;
69594;SDS011;56800;52.142;5.364;2023-04-03T06:47:46;4.65;;;1.70;;
69594;SDS011;56800;52.142;5.364;2023-04-03T06:50:12;5.78;;;2.08;;
69594;SDS011;56800;52.142;5.364;2023-04-03T06:52:40;5.65;;;1.90;;
69594;SDS011;56800;52.142;5.364;2023-04-03T06:55:08;4.55;;;1.92;;
69594;SDS011;56800;52.142;5.364;2023-04-03T06:57:35;9.60;;;1.90;;
69594;SDS011;56800;52.142;5.364;2023-04-03T07:00:03;3.80;;;1.60;;
69594;SDS011;56800;52.142;5.364;2023-04-03T07:02:32;6.32;;;2.15;;
69594;SDS011;56800;52.142;5.364;2023-04-03T07:04:59;5.05;;;1.80;;
69594;SDS011;56800;52.142;5.364;2023-04-03T07:07:26;4.65;;;1.63;;
69594;SDS011;56800;52.142;5.364;2023-04-03T07:09:52;6.07;;;1.80;;
69594;SDS011;56800;52.142;5.364;2023-04-03T07:12:19;9.77;;;1.90;;
69594;SDS011;56800;52.142;5.364;2023-04-03T07:14:46;4.75;;;1.70;;
69594;SDS011;56800;52.142;5.364;2023-04-03T07:17:13;6.57;;;2.25;;
69594;SDS011;56800;52.142;5.364;2023-04-03T07:19:40;6.43;;;1.70;;
69594;SDS011;56800;52.142;5.364;2023-04-03T07:22:07;5.73;;;2.10;;
69594;SDS011;56800;52.142;5.364;2023-04-03T07:24:34;6.25;;;2.22;;
69594;SDS011;56800;52.142;5.364;2023-04-03T07:27:01;9.68;;;2.17;;
69594;SDS011;56800;52.142;5.364;2023-04-03T07:29:28;8.38;;;1.75;;
69594;SDS011;56800;52.142;5.364;2023-04-03T07:31:56;4.22;;;1.77;;
69594;SDS011;56800;52.142;5.364;2023-04-03T07:34:23;5.70;;;1.57;;
69594;SDS011;56800;52.142;5.364;2023-04-03T07:36:49;8.05;;;1.52;;
69594;SDS011;56800;52.142;5.364;2023-04-03T07:39:16;11.07;;;2.13;;
69594;SDS011;56800;52.142;5.364;2023-04-03T07:41:43;6.90;;;1.73;;
69594;SDS011;56800;52.142;5.364;2023-04-03T07:44:09;5.95;;;1.70;;
69594;SDS011;56800;52.142;5.364;2023-04-03T07:46:36;8.13;;;1.87;;
69594;SDS011;56800;52.142;5.364;2023-04-03T07:49:04;4.68;;;1.40;;
69594;SDS011;56800;52.142;5.364;2023-04-03T07:51:30;5.00;;;1.50;;
69594;SDS011;56800;52.142;5.364;2023-04-03T07:53:57;5.70;;;1.52;;
69594;SDS011;56800;52.142;5.364;2023-04-03T07:56:24;8.15;;;1.90;;
69594;SDS011;56800;52.142;5.364;2023-04-03T07:58:51;6.67;;;1.70;;
69594;SDS011;56800;52.142;5.364;2023-04-03T08:01:17;7.22;;;1.77;;
69594;SDS011;56800;52.142;5.364;2023-04-03T08:03:44;5.43;;;1.92;;
69594;SDS011;56800;52.142;5.364;2023-04-03T08:06:11;3.47;;;1.27;;
69594;SDS011;56800;52.142;5.364;2023-04-03T08:08:42;4.93;;;1.48;;
69594;SDS011;56800;52.142;5.364;2023-04-03T08:11:09;6.37;;;1.50;;
69594;SDS011;56800;52.142;5.364;2023-04-03T08:13:36;6.50;;;2.42;;
69594;SDS011;56800;52.142;5.364;2023-04-03T08:16:09;10.25;;;1.70;;
69594;SDS011;56800;52.142;5.364;2023-04-03T08:18:37;6.53;;;1.48;;
69594;SDS011;56800;52.142;5.364;2023-04-03T08:21:05;5.30;;;1.52;;
69594;SDS011;56800;52.142;5.364;2023-04-03T08:23:33;6.40;;;1.23;;
69594;SDS011;56800;52.142;5.364;2023-04-03T08:26:05;6.18;;;1.50;;
69594;SDS011;56800;52.142;5.364;2023-04-03T08:28:42;3.63;;;1.40;;
69594;SDS011;56800;52.142;5.364;2023-04-03T08:31:10;6.35;;;1.58;;
69594;SDS011;56800;52.142;5.364;2023-04-03T08:33:38;4.75;;;1.35;;
69594;SDS011;56800;52.142;5.364;2023-04-03T08:36:06;7.53;;;1.27;;
69594;SDS011;56800;52.142;5.364;2023-04-03T08:38:40;4.25;;;1.50;;
69594;SDS011;56800;52.142;5.364;2023-04-03T08:41:20;7.05;;;1.67;;
69594;SDS011;56800;52.142;5.364;2023-04-03T08:50:04;4.13;;;1.40;;
69594;SDS011;56800;52.142;5.364;2023-04-03T08:52:37;4.15;;;1.40;;
69594;SDS011;56800;52.142;5.364;2023-04-03T08:58:09;4.55;;;1.10;;
69594;SDS011;56800;52.142;5.364;2023-04-03T09:00:44;4.25;;;1.30;;
69594;SDS011;56800;52.142;5.364;2023-04-03T09:03:22;5.70;;;1.20;;
69594;SDS011;56800;52.142;5.364;2023-04-03T09:13:44;3.30;;;1.10;;
69594;SDS011;56800;52.142;5.364;2023-04-03T09:16:21;5.13;;;1.20;;
69594;SDS011;56800;52.142;5.364;2023-04-03T09:21:42;2.67;;;0.95;;
69594;SDS011;56800;52.142;5.364;2023-04-03T09:24:10;3.75;;;1.08;;
69594;SDS011;56800;52.142;5.364;2023-04-03T09:26:44;3.80;;;1.30;;
69594;SDS011;56800;52.142;5.364;2023-04-03T09:29:14;2.37;;;0.90;;
69594;SDS011;56800;52.142;5.364;2023-04-03T09:31:44;2.75;;;1.10;;
69594;SDS011;56800;52.142;5.364;2023-04-03T09:34:22;1.73;;;0.80;;
69594;SDS011;56800;52.142;5.364;2023-04-03T09:36:57;2.55;;;1.40;;
69594;SDS011;56800;52.142;5.364;2023-04-03T09:39:27;2.90;;;1.10;;
69594;SDS011;56800;52.142;5.364;2023-04-03T09:41:58;2.17;;;1.10;;
69594;SDS011;56800;52.142;5.364;2023-04-03T09:44:31;1.95;;;1.00;;
69594;SDS011;56800;52.142;5.364;2023-04-03T09:49:44;1.65;;;1.10;;
69594;SDS011;56800;52.142;5.364;2023-04-03T09:52:18;1.50;;;0.90;;
69594;SDS011;56800;52.142;5.364;2023-04-03T09:54:52;2.93;;;1.10;;
69594;SDS011;56800;52.142;5.364;2023-04-03T09:57:19;2.30;;;1.00;;
69594;SDS011;56800;52.142;5.364;2023-04-03T09:59:59;1.35;;;0.95;;
69594;SDS011;56800;52.142;5.364;2023-04-03T10:02:39;3.25;;;1.10;;
69594;SDS011;56800;52.142;5.364;2023-04-03T10:10:41;2.50;;;1.13;;
69594;SDS011;56800;52.142;5.364;2023-04-03T10:13:12;1.80;;;1.08;;
69594;SDS011;56800;52.142;5.364;2023-04-03T10:29:42;3.92;;;1.38;;
69594;SDS011;56800;52.142;5.364;2023-04-03T10:32:32;3.03;;;1.27;;
69594;SDS011;56800;52.142;5.364;2023-04-03T10:37:49;2.03;;;0.90;;
69594;SDS011;56800;52.142;5.364;2023-04-03T10:43:39;2.15;;;1.15;;
69594;SDS011;56800;52.142;5.364;2023-04-03T10:48:59;2.43;;;1.00;;
69594;SDS011;56800;52.142;5.364;2023-04-03T10:51:42;2.83;;;0.80;;
69594;SDS011;56800;52.142;5.364;2023-04-03T10:54:45;3.33;;;1.42;;
69594;SDS011;56800;52.142;5.364;2023-04-03T10:57:18;4.60;;;1.40;;
69594;SDS011;56800;52.142;5.364;2023-04-03T10:59:47;5.78;;;1.38;;
69594;SDS011;56800;52.142;5.364;2023-04-03T11:02:28;4.73;;;1.20;;
69594;SDS011;56800;52.142;5.364;2023-04-03T11:05:06;2.85;;;0.98;;
69594;SDS011;56800;52.142;5.364;2023-04-03T11:07:48;2.25;;;1.08;;
69594;SDS011;56800;52.142;5.364;2023-04-03T11:10:21;1.75;;;1.00;;
69594;SDS011;56800;52.142;5.364;2023-04-03T11:13:17;2.95;;;1.33;;
69594;SDS011;56800;52.142;5.364;2023-04-03T11:15:54;2.07;;;1.10;;
69594;SDS011;56800;52.142;5.364;2023-04-03T11:21:00;3.10;;;1.50;;
69594;SDS011;56800;52.142;5.364;2023-04-03T11:23:43;2.85;;;1.17;;
69594;SDS011;56800;52.142;5.364;2023-04-03T11:26:16;2.00;;;1.10;;
69594;SDS011;56800;52.142;5.364;2023-04-03T11:28:45;2.23;;;1.13;;
69594;SDS011;56800;52.142;5.364;2023-04-03T11:34:07;4.38;;;1.25;;
69594;SDS011;56800;52.142;5.364;2023-04-03T11:36:46;2.50;;;1.20;;
69594;SDS011;56800;52.142;5.364;2023-04-03T11:39:18;2.65;;;1.20;;
69594;SDS011;56800;52.142;5.364;2023-04-03T11:41:51;2.90;;;1.20;;
69594;SDS011;56800;52.142;5.364;2023-04-03T11:44:37;3.10;;;1.30;;
69594;SDS011;56800;52.142;5.364;2023-04-03T11:47:05;2.33;;;1.25;;
69594;SDS011;56800;52.142;5.364;2023-04-03T11:49:53;2.13;;;1.00;;
69594;SDS011;56800;52.142;5.364;2023-04-03T12:16:22;3.13;;;1.20;;
69594;SDS011;56800;52.142;5.364;2023-04-03T12:19:02;3.08;;;1.27;;
69594;SDS011;56800;52.142;5.364;2023-04-03T12:27:00;2.92;;;1.30;;
69594;SDS011;56800;52.142;5.364;2023-04-03T12:29:51;3.38;;;1.13;;
69594;SDS011;56800;52.142;5.364;2023-04-03T12:40:57;3.40;;;1.30;;
69594;SDS011;56800;52.142;5.364;2023-04-03T12:44:00;3.42;;;1.60;;
69594;SDS011;56800;52.142;5.364;2023-04-03T12:46:37;2.92;;;1.45;;
69594;SDS011;56800;52.142;5.364;2023-04-03T12:49:18;4.33;;;1.20;;
69594;SDS011;56800;52.142;5.364;2023-04-03T12:51:54;3.13;;;1.40;;
69594;SDS011;56800;52.142;5.364;2023-04-03T12:54:37;3.42;;;1.48;;
69594;SDS011;56800;52.142;5.364;2023-04-03T12:57:13;3.55;;;1.50;;
69594;SDS011;56800;52.142;5.364;2023-04-03T12:59:42;3.35;;;1.10;;
69594;SDS011;56800;52.142;5.364;2023-04-03T13:02:22;3.07;;;1.33;;
69594;SDS011;56800;52.142;5.364;2023-04-03T13:04:54;6.15;;;1.88;;
69594;SDS011;56800;52.142;5.364;2023-04-03T13:07:25;5.35;;;1.48;;
69594;SDS011;56800;52.142;5.364;2023-04-03T13:09:55;5.50;;;1.17;;
69594;SDS011;56800;52.142;5.364;2023-04-03T13:12:23;3.60;;;1.40;;
69594;SDS011;56800;52.142;5.364;2023-04-03T13:14:56;3.50;;;1.33;;
69594;SDS011;56800;52.142;5.364;2023-04-03T13:17:25;3.55;;;1.58;;
69594;SDS011;56800;52.142;5.364;2023-04-03T13:19:54;3.45;;;1.60;;
69594;SDS011;56800;52.142;5.364;2023-04-03T13:22:26;3.08;;;1.25;;
69594;SDS011;56800;52.142;5.364;2023-04-03T13:25:06;3.65;;;1.50;;
69594;SDS011;56800;52.142;5.364;2023-04-03T13:27:35;3.33;;;1.00;;
69594;SDS011;56800;52.142;5.364;2023-04-03T13:30:05;3.28;;;1.38;;
69594;SDS011;56800;52.142;5.364;2023-04-03T13:32:33;2.97;;;1.40;;
69594;SDS011;56800;52.142;5.364;2023-04-03T13:35:00;3.25;;;1.58;;
69594;SDS011;56800;52.142;5.364;2023-04-03T13:37:52;4.53;;;1.55;;
69594;SDS011;56800;52.142;5.364;2023-04-03T13:40:21;4.23;;;1.37;;
69594;SDS011;56800;52.142;5.364;2023-04-03T13:42:58;3.80;;;1.30;;
69594;SDS011;56800;52.142;5.364;2023-04-03T13:45:33;3.35;;;1.67;;
69594;SDS011;56800;52.142;5.364;2023-04-03T13:48:15;3.95;;;1.77;;
69594;SDS011;56800;52.142;5.364;2023-04-03T13:51:00;4.93;;;2.22;;
69594;SDS011;56800;52.142;5.364;2023-04-03T13:53:30;5.10;;;1.60;;
69594;SDS011;56800;52.142;5.364;2023-04-03T13:58:35;2.63;;;1.67;;
69594;SDS011;56800;52.142;5.364;2023-04-03T14:01:19;2.83;;;1.38;;
69594;SDS011;56800;52.142;5.364;2023-04-03T14:03:57;4.40;;;1.40;;
69594;SDS011;56800;52.142;5.364;2023-04-03T14:06:25;4.50;;;1.80;;
69594;SDS011;56800;52.142;5.364;2023-04-03T14:08:53;4.72;;;1.40;;
69594;SDS011;56800;52.142;5.364;2023-04-03T14:11:20;3.10;;;1.55;;
69594;SDS011;56800;52.142;5.364;2023-04-03T14:13:50;4.45;;;1.50;;
69594;SDS011;56800;52.142;5.364;2023-04-03T14:16:21;3.95;;;1.13;;
69594;SDS011;56800;52.142;5.364;2023-04-03T14:18:51;2.50;;;1.20;;
69594;SDS011;56800;52.142;5.364;2023-04-03T14:21:19;3.30;;;1.40;;
69594;SDS011;56800;52.142;5.364;2023-04-03T14:23:47;4.10;;;1.65;;
69594;SDS011;56800;52.142;5.364;2023-04-03T14:26:18;5.18;;;1.75;;
69594;SDS011;56800;52.142;5.364;2023-04-03T14:28:48;3.88;;;1.60;;
69594;SDS011;56800;52.142;5.364;2023-04-03T14:31:17;2.63;;;1.37;;
69594;SDS011;56800;52.142;5.364;2023-04-03T14:33:45;7.13;;;1.50;;
69594;SDS011;56800;52.142;5.364;2023-04-03T14:36:17;6.47;;;1.48;;
69594;SDS011;56800;52.142;5.364;2023-04-03T14:38:47;3.05;;;1.30;;
69594;SDS011;56800;52.142;5.364;2023-04-03T14:41:16;3.42;;;1.70;;
69594;SDS011;56800;52.142;5.364;2023-04-03T14:43:45;4.87;;;1.60;;
69594;SDS011;56800;52.142;5.364;2023-04-03T14:46:17;3.40;;;1.58;;
69594;SDS011;56800;52.142;5.364;2023-04-03T14:48:48;4.07;;;1.75;;
69594;SDS011;56800;52.142;5.364;2023-04-03T14:51:15;4.28;;;1.70;;
69594;SDS011;56800;52.142;5.364;2023-04-03T14:53:42;4.20;;;1.45;;
69594;SDS011;56800;52.142;5.364;2023-04-03T14:56:12;3.60;;;1.67;;
69594;SDS011;56800;52.142;5.364;2023-04-03T14:58:43;6.53;;;1.40;;
69594;SDS011;56800;52.142;5.364;2023-04-03T15:01:11;4.07;;;1.80;;
69594;SDS011;56800;52.142;5.364;2023-04-03T15:03:40;3.28;;;1.40;;
69594;SDS011;56800;52.142;5.364;2023-04-03T15:06:08;3.72;;;1.52;;
69594;SDS011;56800;52.142;5.364;2023-04-03T15:08:37;5.43;;;2.10;;
69594;SDS011;56800;52.142;5.364;2023-04-03T15:11:04;5.18;;;2.10;;
69594;SDS011;56800;52.142;5.364;2023-04-03T15:13:31;4.40;;;1.83;;
69594;SDS011;56800;52.142;5.364;2023-04-03T15:15:58;5.32;;;2.10;;
69594;SDS011;56800;52.142;5.364;2023-04-03T15:18:28;4.30;;;1.75;;
69594;SDS011;56800;52.142;5.364;2023-04-03T15:21:00;5.43;;;1.77;;
69594;SDS011;56800;52.142;5.364;2023-04-03T15:23:26;5.22;;;1.50;;
69594;SDS011;56800;52.142;5.364;2023-04-03T15:25:54;4.43;;;1.73;;
69594;SDS011;56800;52.142;5.364;2023-04-03T15:28:23;3.83;;;1.67;;
69594;SDS011;56800;52.142;5.364;2023-04-03T15:30:54;5.22;;;1.95;;
69594;SDS011;56800;52.142;5.364;2023-04-03T15:33:22;3.73;;;1.70;;
69594;SDS011;56800;52.142;5.364;2023-04-03T15:35:48;4.38;;;1.70;;
69594;SDS011;56800;52.142;5.364;2023-04-03T15:38:15;4.55;;;1.65;;
69594;SDS011;56800;52.142;5.364;2023-04-03T15:40:42;4.50;;;1.60;;
69594;SDS011;56800;52.142;5.364;2023-04-03T15:43:09;3.88;;;1.60;;
69594;SDS011;56800;52.142;5.364;2023-04-03T15:45:36;4.37;;;1.57;;
69594;SDS011;56800;52.142;5.364;2023-04-03T15:48:04;3.97;;;1.52;;
69594;SDS011;56800;52.142;5.364;2023-04-03T15:50:32;5.97;;;1.70;;
69594;SDS011;56800;52.142;5.364;2023-04-03T15:52:59;3.63;;;1.60;;
69594;SDS011;56800;52.142;5.364;2023-04-03T15:55:28;5.65;;;1.83;;
69594;SDS011;56800;52.142;5.364;2023-04-03T15:57:56;5.40;;;1.80;;
69594;SDS011;56800;52.142;5.364;2023-04-03T16:00:23;4.85;;;2.03;;
69594;SDS011;56800;52.142;5.364;2023-04-03T16:02:53;5.57;;;1.70;;
69594;SDS011;56800;52.142;5.364;2023-04-03T16:05:23;3.45;;;1.33;;
69594;SDS011;56800;52.142;5.364;2023-04-03T16:07:50;4.03;;;1.50;;
69594;SDS011;56800;52.142;5.364;2023-04-03T16:10:17;6.47;;;1.83;;
69594;SDS011;56800;52.142;5.364;2023-04-03T16:12:44;6.47;;;1.73;;
69594;SDS011;56800;52.142;5.364;2023-04-03T16:15:11;5.32;;;1.80;;
69594;SDS011;56800;52.142;5.364;2023-04-03T16:17:38;5.07;;;1.77;;
69594;SDS011;56800;52.142;5.364;2023-04-03T16:20:09;4.40;;;1.60;;
69594;SDS011;56800;52.142;5.364;2023-04-03T16:22:38;3.37;;;1.50;;
69594;SDS011;56800;52.142;5.364;2023-04-03T16:25:07;4.05;;;1.65;;
69594;SDS011;56800;52.142;5.364;2023-04-03T16:27:35;4.22;;;1.38;;
69594;SDS011;56800;52.142;5.364;2023-04-03T16:30:02;5.90;;;1.60;;
69594;SDS011;56800;52.142;5.364;2023-04-03T16:32:30;7.50;;;1.88;;
69594;SDS011;56800;52.142;5.364;2023-04-03T16:34:58;3.57;;;1.37;;
69594;SDS011;56800;52.142;5.364;2023-04-03T16:37:30;3.38;;;1.20;;
69594;SDS011;56800;52.142;5.364;2023-04-03T16:39:58;3.65;;;1.40;;
69594;SDS011;56800;52.142;5.364;2023-04-03T16:42:25;7.13;;;1.55;;
69594;SDS011;56800;52.142;5.364;2023-04-03T16:44:52;3.40;;;1.23;;
69594;SDS011;56800;52.142;5.364;2023-04-03T16:47:18;3.27;;;1.40;;